Charlevoix, MI (49711)

3:00 PM EDT on August 22, 2014 (GMT -0400)
1.5 W Ironton | Change Station
CLOSE
Current Station
Personal Weather Station
Location: Charlevoix, MI
Elevation: 750 ft
Nearby Weather Stations

Elev 750 ft 45.26 °N, 85.22 °W | Updated 2 seconds ago

Mostly Cloudy
Mostly Cloudy
75.8 °F
Feels Like 77 °F
N
3.0
Wind Variable Wind from NNE
Gusts 4.0 mph

Today
High -- | Low -- °F
--% Chance of Precip.
Yesterday
High -- | Low -- °F
Precip. -- in
6:50 AM 8:36 PM
Waning Crescent, 7% visible
Pressure 30.02 in
Visibility 10.0 miles
Clouds Scattered Clouds 2800 ft
Scattered Clouds 3300 ft
Mostly Cloudy 11000 ft
Heat Index 77 °F
Dew Point 69 °F
Humidity 79%
Rainfall 0.00 in
Snow Depth Not available.
UV 4 out of 12
Pollen 6.00 out of 12
Ozone Good
PM2.5 Good
Flu Activity Not available.
METAR KCVX 221855Z AUTO 33006KT 10SM SCT028 SCT033 BKN110 24/20 A3002 RMK AO2 T02400199

More Conditions Fewer Conditions

Pressure 30.02 in
Visibility 10.0 miles
Clouds Scattered Clouds 2800 ft
Scattered Clouds 3300 ft
Mostly Cloudy 11000 ft
Heat Index 77 °F
Dew Point 69 °F
Humidity 79%
Rainfall 0.00 in
Snow Depth Not available.
UV 4 out of 12
Pollen 6.00 out of 12
Ozone Good
PM2.5 Good
Flu Activity Not available.
METAR KCVX 221855Z AUTO 33006KT 10SM SCT028 SCT033 BKN110 24/20 A3002 RMK AO2 T02400199

More Conditions Fewer Conditions

Nowcast | as of 3:00 PM EDT on August 22, 2014

At 4 PM...partly cloudy. Temperature 75. Northeast winds 7 mph. At 6 PM...partly cloudy. Temperature 74. Northeast winds 7 mph. At 8 PM...partly cloudy. Temperature 72. East winds 6 mph. At 10 PM...partly cloudy. Temperature 69. Light winds.

×

10-Day Weather Forecast

Almanac

Astronomy

Aug. 22, 2014 Rise Set
Actual Time 6:50 AM EDT 8:36 PM EDT
Civil Twilight 6:19 AM EDT 9:07 PM EDT
Nautical Twilight 5:40 AM EDT 9:45 PM EDT
Astronomical Twilight 4:59 AM EDT 10:27 PM EDT
Moon 4:08 AM EDT 6:46 PM EDT
Length of Visible Light 14h 48m
Length of Day
13h 45m
Tomorrow will be 2m 57s shorter.
Waning Crescent, 7% of the Moon is Illuminated
Today
Waning Crescent
Aug 25
New
Sep 2
First Quarter
Sep 8
Full
Sep 15
Last Quarter

Today's Extremes

State Highs State Lows

Community

WunderPhotos

Upload Photos

1,746,220 photos uploaded!

Nearby

Air Quality

  Air Quality AQ Index Pollutant
Yesterday Good
OZONE
Yesterday Good
PM2.5
Current Good
OZONE
Current Good
PM2.5
Friday Moderate
PM2.5
Friday Good
OZONE
Saturday Moderate
PM2.5
Saturday Good
OZONE
Sunday Moderate
PM2.5
Sunday Good
OZONE

Snow Depth

Station Depth Elevation
No new snow has been reported.

Earthquake Activity

City Distance Mag. Time & Date
No recent earthquake activity has been reported nearby.
Minimum magnitude displayed is 2.5.

Coastal Water Temperatures

Place Temperature
Mackinaw City, MI 66.0 °F
Port Inland, MI 62.1 °F

Nearby Weather Stations